sensor_id;sensor_type;location;lat;lon;timestamp;pressure;altitude;pressure_sealevel;temperature;humidity
76496;BME280;65329;52.544;4.662;2023-11-19T00:01:34;22627.78;;;-139.74;52.60
76496;BME280;65329;52.544;4.662;2023-11-19T00:04:01;22530.50;;;-139.74;52.42
76496;BME280;65329;52.544;4.662;2023-11-19T00:06:28;25865.69;;;-139.74;52.24
76496;BME280;65329;52.544;4.662;2023-11-19T00:08:56;28484.47;;;-139.74;52.11
76496;BME280;65329;52.544;4.662;2023-11-19T00:11:23;30553.41;;;-139.74;52.12
76496;BME280;65329;52.544;4.662;2023-11-19T00:13:49;29290.75;;;-139.74;51.81
76496;BME280;65329;52.544;4.662;2023-11-19T00:16:16;27678.34;;;-139.74;52.16
76496;BME280;65329;52.544;4.662;2023-11-19T00:18:43;30484.97;;;-139.74;52.03
76496;BME280;65329;52.544;4.662;2023-11-19T00:21:10;35844.69;;;-139.74;51.78
76496;BME280;65329;52.544;4.662;2023-11-19T00:23:37;39031.22;;;-139.74;51.51
76496;BME280;65329;52.544;4.662;2023-11-19T00:26:04;42738.22;;;-139.74;51.39
76496;BME280;65329;52.544;4.662;2023-11-19T00:28:33;44015.59;;;-139.74;51.44
76496;BME280;65329;52.544;4.662;2023-11-19T00:31:00;60809.50;;;-139.74;49.17
76496;BME280;65329;52.544;4.662;2023-11-19T00:33:27;57860.09;;;-139.74;49.75
76496;BME280;65329;52.544;4.662;2023-11-19T00:35:54;83649.16;;;-139.74;46.64
76496;BME280;65329;52.544;4.662;2023-11-19T00:38:22;99427.00;;;-139.74;40.36
76496;BME280;65329;52.544;4.662;2023-11-19T00:40:49;83350.75;;;-139.74;45.25
76496;BME280;65329;52.544;4.662;2023-11-19T00:43:16;82340.09;;;-139.74;46.70
76496;BME280;65329;52.544;4.662;2023-11-19T00:45:43;84916.59;;;-139.74;46.56
76496;BME280;65329;52.544;4.662;2023-11-19T00:48:10;85660.84;;;-139.74;46.83
76496;BME280;65329;52.544;4.662;2023-11-19T00:50:38;84710.59;;;-139.74;47.21
76496;BME280;65329;52.544;4.662;2023-11-19T00:53:09;87503.16;;;-139.74;46.70
76496;BME280;65329;52.544;4.662;2023-11-19T00:55:35;83546.19;;;-139.74;46.17
76496;BME280;65329;52.544;4.662;2023-11-19T00:58:12;92877.16;;;-139.74;45.85
76496;BME280;65329;52.544;4.662;2023-11-19T01:00:39;100161.25;;;-139.74;43.98
76496;BME280;65329;52.544;4.662;2023-11-19T01:03:06;105831.03;;;-139.74;42.31
76496;BME280;65329;52.544;4.662;2023-11-19T01:05:34;105414.78;;;-139.74;42.93
76496;BME280;65329;52.544;4.662;2023-11-19T01:08:01;101488.78;;;-139.74;44.27
76496;BME280;65329;52.544;4.662;2023-11-19T01:10:28;98559.97;;;-139.74;45.52
76496;BME280;65329;52.544;4.662;2023-11-19T01:12:55;102214.97;;;-139.74;44.55
76496;BME280;65329;52.544;4.662;2023-11-19T01:15:22;104138.78;;;-139.74;44.16
76496;BME280;65329;52.544;4.662;2023-11-19T01:17:49;105007.00;;;-139.74;43.79
76496;BME280;65329;52.544;4.662;2023-11-19T01:20:19;100448.25;;;-139.74;44.85
76496;BME280;65329;52.544;4.662;2023-11-19T01:22:48;102909.63;;;-139.74;44.51
76496;BME280;65329;52.544;4.662;2023-11-19T01:25:16;100655.06;;;-139.74;46.59
76496;BME280;65329;52.544;4.662;2023-11-19T01:27:43;98123.34;;;-139.74;46.54
76496;BME280;65329;52.544;4.662;2023-11-19T01:30:11;93132.06;;;-139.74;47.58
76496;BME280;65329;52.544;4.662;2023-11-19T01:32:40;92472.75;;;-139.74;47.67
76496;BME280;65329;52.544;4.662;2023-11-19T01:35:07;90308.22;;;-139.74;47.76
76496;BME280;65329;52.544;4.662;2023-11-19T01:37:37;85219.34;;;-139.74;48.39
76496;BME280;65329;52.544;4.662;2023-11-19T01:40:04;82983.03;;;-139.74;48.41
76496;BME280;65329;52.544;4.662;2023-11-19T01:42:42;85450.59;;;-139.74;48.14
76496;BME280;65329;52.544;4.662;2023-11-19T01:45:09;91954.69;;;-139.74;47.00
76496;BME280;65329;52.544;4.662;2023-11-19T01:47:36;98595.81;;;-139.74;45.95
76496;BME280;65329;52.544;4.662;2023-11-19T01:50:06;103340.44;;;-139.74;44.62
76496;BME280;65329;52.544;4.662;2023-11-19T01:52:37;107572.63;;;-139.74;43.38
76496;BME280;65329;52.544;4.662;2023-11-19T01:55:06;111295.00;;;-139.74;41.26
76496;BME280;65329;52.544;4.662;2023-11-19T01:57:35;111015.72;;;-139.74;42.09
76496;BME280;65329;52.544;4.662;2023-11-19T02:00:06;111548.94;;;-139.74;41.98
76496;BME280;65329;52.544;4.662;2023-11-19T02:02:40;113987.41;;;-139.74;40.79
76496;BME280;65329;52.544;4.662;2023-11-19T02:05:07;116052.34;;;-139.74;40.13
76496;BME280;65329;52.544;4.662;2023-11-19T02:07:34;116880.75;;;-139.74;38.21
76496;BME280;65329;52.544;4.662;2023-11-19T02:10:01;117495.25;;;-139.74;36.84
76496;BME280;65329;52.544;4.662;2023-11-19T02:12:32;116971.84;;;-139.74;38.04
76496;BME280;65329;52.544;4.662;2023-11-19T02:15:05;117450.75;;;-139.74;38.64
76496;BME280;65329;52.544;4.662;2023-11-19T02:17:32;117940.31;;;-139.74;37.45
76496;BME280;65329;52.544;4.662;2023-11-19T02:20:01;117940.31;;;-139.74;37.82
76496;BME280;65329;52.544;4.662;2023-11-19T02:22:27;117940.31;;;-139.74;38.01
76496;BME280;65329;52.544;4.662;2023-11-19T02:24:59;117940.31;;;-139.74;37.47
76496;BME280;65329;52.544;4.662;2023-11-19T02:30:03;117940.31;;;-139.74;33.27
76496;BME280;65329;52.544;4.662;2023-11-19T02:32:32;117940.31;;;-139.74;30.95
76496;BME280;65329;52.544;4.662;2023-11-19T02:34:59;117940.31;;;-139.74;29.53
76496;BME280;65329;52.544;4.662;2023-11-19T02:37:29;117940.31;;;-139.74;23.62
76496;BME280;65329;52.544;4.662;2023-11-19T02:39:56;117940.31;;;-139.74;17.98
76496;BME280;65329;52.544;4.662;2023-11-19T02:42:23;117940.31;;;-139.74;17.10
76496;BME280;65329;52.544;4.662;2023-11-19T02:44:49;117940.31;;;-139.74;12.47
76496;BME280;65329;52.544;4.662;2023-11-19T02:47:17;117940.31;;;-139.74;7.57
76496;BME280;65329;52.544;4.662;2023-11-19T02:49:49;117940.31;;;-139.74;3.67
76496;BME280;65329;52.544;4.662;2023-11-19T02:52:16;117940.31;;;-139.74;0.00
76496;BME280;65329;52.544;4.662;2023-11-19T02:54:43;117940.31;;;-139.74;0.00
76496;BME280;65329;52.544;4.662;2023-11-19T02:57:10;117940.31;;;-139.74;0.00
76496;BME280;65329;52.544;4.662;2023-11-19T02:59:48;117940.31;;;-139.74;0.00
76496;BME280;65329;52.544;4.662;2023-11-19T03:02:15;117940.31;;;-139.74;0.00
76496;BME280;65329;52.544;4.662;2023-11-19T03:04:44;117940.31;;;-139.74;0.00
76496;BME280;65329;52.544;4.662;2023-11-19T03:07:12;117940.31;;;-139.74;0.00
76496;BME280;65329;52.544;4.662;2023-11-19T03:09:40;117940.31;;;-139.74;0.00
76496;BME280;65329;52.544;4.662;2023-11-19T03:12:07;117940.31;;;-139.74;0.00
76496;BME280;65329;52.544;4.662;2023-11-19T03:14:34;117940.31;;;-139.74;0.00
76496;BME280;65329;52.544;4.662;2023-11-19T03:17:02;117940.31;;;-139.74;0.00
76496;BME280;65329;52.544;4.662;2023-11-19T03:19:30;117940.31;;;-139.74;0.00
76496;BME280;65329;52.544;4.662;2023-11-19T03:21:57;117940.31;;;-139.74;0.00
76496;BME280;65329;52.544;4.662;2023-11-19T03:24:24;117940.31;;;-139.74;0.00
76496;BME280;65329;52.544;4.662;2023-11-19T03:26:51;117940.31;;;-139.74;0.00
76496;BME280;65329;52.544;4.662;2023-11-19T03:29:18;117940.31;;;-139.74;0.00
76496;BME280;65329;52.544;4.662;2023-11-19T03:31:45;117940.31;;;-139.74;0.00
76496;BME280;65329;52.544;4.662;2023-11-19T03:34:11;117940.31;;;-139.74;0.00
76496;BME280;65329;52.544;4.662;2023-11-19T03:36:38;117940.31;;;-139.74;0.00
76496;BME280;65329;52.544;4.662;2023-11-19T03:39:06;117940.31;;;-139.74;0.00
76496;BME280;65329;52.544;4.662;2023-11-19T03:41:35;117940.31;;;-139.74;0.00
76496;BME280;65329;52.544;4.662;2023-11-19T03:44:05;117940.31;;;-139.74;0.00
76496;BME280;65329;52.544;4.662;2023-11-19T03:46:32;117940.31;;;-139.74;0.00
76496;BME280;65329;52.544;4.662;2023-11-19T03:48:59;117940.31;;;-139.74;0.00
76496;BME280;65329;52.544;4.662;2023-11-19T03:51:26;117940.31;;;-139.74;0.00
76496;BME280;65329;52.544;4.662;2023-11-19T03:53:53;117940.31;;;-139.74;0.00
76496;BME280;65329;52.544;4.662;2023-11-19T03:56:20;117940.31;;;-139.74;0.00
76496;BME280;65329;52.544;4.662;2023-11-19T03:58:48;117940.31;;;-139.74;0.00
76496;BME280;65329;52.544;4.662;2023-11-19T04:01:14;117940.31;;;-139.74;0.00
76496;BME280;65329;52.544;4.662;2023-11-19T04:03:41;117940.31;;;-139.74;0.00
76496;BME280;65329;52.544;4.662;2023-11-19T04:06:11;117940.31;;;-139.74;0.00
76496;BME280;65329;52.544;4.662;2023-11-19T04:08:38;117940.31;;;-139.74;0.00
76496;BME280;65329;52.544;4.662;2023-11-19T04:11:05;117940.31;;;-139.74;0.00
76496;BME280;65329;52.544;4.662;2023-11-19T04:13:32;117940.31;;;-139.74;0.00
76496;BME280;65329;52.544;4.662;2023-11-19T04:15:59;117940.31;;;-139.74;0.00
76496;BME280;65329;52.544;4.662;2023-11-19T04:18:26;117940.31;;;-139.74;0.00
76496;BME280;65329;52.544;4.662;2023-11-19T04:20:53;117940.31;;;-139.74;0.00
76496;BME280;65329;52.544;4.662;2023-11-19T04:23:20;117940.31;;;-139.74;0.00
76496;BME280;65329;52.544;4.662;2023-11-19T04:25:47;117940.31;;;-139.74;0.00
76496;BME280;65329;52.544;4.662;2023-11-19T04:28:14;117940.31;;;-139.74;0.00
76496;BME280;65329;52.544;4.662;2023-11-19T04:30:41;117940.31;;;-139.74;0.00
76496;BME280;65329;52.544;4.662;2023-11-19T04:33:09;117940.31;;;-139.74;0.00
76496;BME280;65329;52.544;4.662;2023-11-19T04:35:37;117940.31;;;-139.74;0.00
76496;BME280;65329;52.544;4.662;2023-11-19T04:38:04;117940.31;;;-139.74;0.00
76496;BME280;65329;52.544;4.662;2023-11-19T04:40:32;117940.31;;;-139.74;0.00
76496;BME280;65329;52.544;4.662;2023-11-19T04:43:00;117940.31;;;-139.74;0.00
76496;BME280;65329;52.544;4.662;2023-11-19T04:45:27;117940.31;;;-139.74;0.00
76496;BME280;65329;52.544;4.662;2023-11-19T04:47:54;117940.31;;;-139.74;0.00
76496;BME280;65329;52.544;4.662;2023-11-19T04:50:21;117940.31;;;-139.74;0.00
76496;BME280;65329;52.544;4.662;2023-11-19T04:52:48;117940.31;;;-139.74;0.00
76496;BME280;65329;52.544;4.662;2023-11-19T04:55:15;117940.31;;;-139.74;0.00
76496;BME280;65329;52.544;4.662;2023-11-19T04:57:41;117940.31;;;-139.74;0.00
76496;BME280;65329;52.544;4.662;2023-11-19T05:00:10;117940.31;;;-139.74;0.00
76496;BME280;65329;52.544;4.662;2023-11-19T05:02:40;117940.31;;;-139.74;0.00
76496;BME280;65329;52.544;4.662;2023-11-19T05:05:07;117940.31;;;-139.74;0.00
76496;BME280;65329;52.544;4.662;2023-11-19T05:07:35;117940.31;;;-139.74;0.00
76496;BME280;65329;52.544;4.662;2023-11-19T05:10:03;117940.31;;;-139.74;0.00
76496;BME280;65329;52.544;4.662;2023-11-19T05:12:30;117940.31;;;-139.74;0.00
76496;BME280;65329;52.544;4.662;2023-11-19T05:14:58;117940.31;;;-139.74;0.00
76496;BME280;65329;52.544;4.662;2023-11-19T05:17:24;117940.31;;;-139.74;0.00
76496;BME280;65329;52.544;4.662;2023-11-19T05:19:52;117940.31;;;-139.74;0.00
76496;BME280;65329;52.544;4.662;2023-11-19T05:22:19;117940.31;;;-139.74;0.00
76496;BME280;65329;52.544;4.662;2023-11-19T05:24:47;117940.31;;;-139.74;0.00
76496;BME280;65329;52.544;4.662;2023-11-19T05:27:16;117940.31;;;-139.74;0.00
76496;BME280;65329;52.544;4.662;2023-11-19T05:29:43;117940.31;;;-139.74;0.00
76496;BME280;65329;52.544;4.662;2023-11-19T05:32:10;117940.31;;;-139.74;0.00
76496;BME280;65329;52.544;4.662;2023-11-19T05:34:38;117940.31;;;-139.74;0.00
76496;BME280;65329;52.544;4.662;2023-11-19T05:37:18;117940.31;;;-139.74;0.00
76496;BME280;65329;52.544;4.662;2023-11-19T05:39:45;117940.31;;;-139.74;0.00
76496;BME280;65329;52.544;4.662;2023-11-19T05:42:12;117940.31;;;-139.74;0.00
76496;BME280;65329;52.544;4.662;2023-11-19T05:44:39;117940.31;;;-139.74;0.00
76496;BME280;65329;52.544;4.662;2023-11-19T05:47:07;117940.31;;;-139.74;0.00
76496;BME280;65329;52.544;4.662;2023-11-19T05:49:34;117940.31;;;-139.74;0.00
76496;BME280;65329;52.544;4.662;2023-11-19T05:52:01;117940.31;;;-139.74;0.00
76496;BME280;65329;52.544;4.662;2023-11-19T05:54:30;117940.31;;;-139.74;0.00
76496;BME280;65329;52.544;4.662;2023-11-19T05:56:58;117940.31;;;-139.74;0.00
76496;BME280;65329;52.544;4.662;2023-11-19T05:59:25;117940.31;;;-139.74;0.00
76496;BME280;65329;52.544;4.662;2023-11-19T06:01:52;117940.31;;;-139.74;0.00
76496;BME280;65329;52.544;4.662;2023-11-19T06:04:19;117940.31;;;-139.74;0.00
76496;BME280;65329;52.544;4.662;2023-11-19T06:06:47;117940.31;;;-139.74;0.00
76496;BME280;65329;52.544;4.662;2023-11-19T06:09:13;117940.31;;;-139.74;0.00
76496;BME280;65329;52.544;4.662;2023-11-19T06:11:40;117940.31;;;-139.74;0.00
76496;BME280;65329;52.544;4.662;2023-11-19T06:14:07;117940.31;;;-139.74;0.00
76496;BME280;65329;52.544;4.662;2023-11-19T06:16:34;117940.31;;;-139.74;0.00
76496;BME280;65329;52.544;4.662;2023-11-19T06:19:01;117940.31;;;-139.74;0.00
76496;BME280;65329;52.544;4.662;2023-11-19T06:21:28;117940.31;;;-139.74;0.00
76496;BME280;65329;52.544;4.662;2023-11-19T06:23:55;117940.31;;;-139.74;0.00
76496;BME280;65329;52.544;4.662;2023-11-19T06:26:22;117940.31;;;-139.74;0.00
76496;BME280;65329;52.544;4.662;2023-11-19T06:28:50;117940.31;;;-139.74;0.00
76496;BME280;65329;52.544;4.662;2023-11-19T06:31:17;117940.31;;;-139.74;0.00
76496;BME280;65329;52.544;4.662;2023-11-19T06:33:44;117940.31;;;-139.74;0.00
76496;BME280;65329;52.544;4.662;2023-11-19T06:36:14;117940.31;;;-139.74;0.00
76496;BME280;65329;52.544;4.662;2023-11-19T06:38:43;117940.31;;;-139.74;0.00
76496;BME280;65329;52.544;4.662;2023-11-19T06:41:09;117940.31;;;-139.74;0.00
76496;BME280;65329;52.544;4.662;2023-11-19T06:43:37;117940.31;;;-139.74;0.00
76496;BME280;65329;52.544;4.662;2023-11-19T06:46:14;117940.31;;;-139.74;0.00
76496;BME280;65329;52.544;4.662;2023-11-19T06:48:41;117940.31;;;-139.74;0.00
76496;BME280;65329;52.544;4.662;2023-11-19T06:51:11;117940.31;;;-139.74;0.00
76496;BME280;65329;52.544;4.662;2023-11-19T06:53:38;117940.31;;;-139.74;0.00
76496;BME280;65329;52.544;4.662;2023-11-19T06:56:25;117940.31;;;-139.74;0.00
76496;BME280;65329;52.544;4.662;2023-11-19T06:58:52;117940.31;;;-139.74;0.00
76496;BME280;65329;52.544;4.662;2023-11-19T07:01:20;117940.31;;;-139.74;0.00
76496;BME280;65329;52.544;4.662;2023-11-19T07:03:47;117940.31;;;-139.74;0.00
76496;BME280;65329;52.544;4.662;2023-11-19T07:06:15;117940.31;;;-139.74;0.00
76496;BME280;65329;52.544;4.662;2023-11-19T07:08:41;117940.31;;;-139.74;0.00
76496;BME280;65329;52.544;4.662;2023-11-19T07:11:12;117940.31;;;-139.74;0.00
76496;BME280;65329;52.544;4.662;2023-11-19T07:13:40;117940.31;;;-139.74;0.00
76496;BME280;65329;52.544;4.662;2023-11-19T07:16:08;117940.31;;;-139.74;0.00
76496;BME280;65329;52.544;4.662;2023-11-19T07:18:36;117940.31;;;-139.74;0.00
76496;BME280;65329;52.544;4.662;2023-11-19T07:21:04;117940.31;;;-139.74;0.00
76496;BME280;65329;52.544;4.662;2023-11-19T07:23:31;117940.31;;;-139.74;0.00
76496;BME280;65329;52.544;4.662;2023-11-19T07:25:59;117940.31;;;-139.74;0.00
76496;BME280;65329;52.544;4.662;2023-11-19T07:28:26;117940.31;;;-139.74;0.00
76496;BME280;65329;52.544;4.662;2023-11-19T07:30:55;117940.31;;;-139.74;0.00
76496;BME280;65329;52.544;4.662;2023-11-19T07:33:24;117940.31;;;-139.74;0.00
76496;BME280;65329;52.544;4.662;2023-11-19T07:35:51;117940.31;;;-139.74;0.00
76496;BME280;65329;52.544;4.662;2023-11-19T07:38:18;117940.31;;;-139.74;0.00
76496;BME280;65329;52.544;4.662;2023-11-19T07:40:45;117940.31;;;-139.74;0.00
76496;BME280;65329;52.544;4.662;2023-11-19T07:43:15;117940.31;;;-139.74;0.00
76496;BME280;65329;52.544;4.662;2023-11-19T07:45:42;117940.31;;;-139.74;0.00
76496;BME280;65329;52.544;4.662;2023-11-19T07:48:10;117940.31;;;-139.74;0.00
76496;BME280;65329;52.544;4.662;2023-11-19T07:50:39;117940.31;;;-139.74;0.00
76496;BME280;65329;52.544;4.662;2023-11-19T07:53:07;117940.31;;;-139.74;0.00
76496;BME280;65329;52.544;4.662;2023-11-19T07:55:35;117940.31;;;-139.74;0.00
76496;BME280;65329;52.544;4.662;2023-11-19T07:58:02;117940.31;;;-139.74;0.00
76496;BME280;65329;52.544;4.662;2023-11-19T08:00:29;117940.31;;;-139.74;0.00
76496;BME280;65329;52.544;4.662;2023-11-19T08:02:56;117940.31;;;-139.74;0.00
76496;BME280;65329;52.544;4.662;2023-11-19T08:05:23;117940.31;;;-139.74;0.00
76496;BME280;65329;52.544;4.662;2023-11-19T08:07:51;117940.31;;;-139.74;0.00
76496;BME280;65329;52.544;4.662;2023-11-19T08:10:19;117940.31;;;-139.74;0.00
76496;BME280;65329;52.544;4.662;2023-11-19T08:12:46;117940.31;;;-139.74;0.00
76496;BME280;65329;52.544;4.662;2023-11-19T08:15:13;117940.31;;;-139.74;0.00
76496;BME280;65329;52.544;4.662;2023-11-19T08:17:40;117940.31;;;-139.74;0.00
76496;BME280;65329;52.544;4.662;2023-11-19T08:20:09;117940.31;;;-139.74;0.00
76496;BME280;65329;52.544;4.662;2023-11-19T08:22:39;117940.31;;;-139.74;0.00
76496;BME280;65329;52.544;4.662;2023-11-19T08:25:06;117940.31;;;-139.74;0.00
76496;BME280;65329;52.544;4.662;2023-11-19T08:27:33;117940.31;;;-139.74;0.00
76496;BME280;65329;52.544;4.662;2023-11-19T08:30:00;117940.31;;;-139.74;0.00
76496;BME280;65329;52.544;4.662;2023-11-19T08:32:27;117940.31;;;-139.74;0.00
76496;BME280;65329;52.544;4.662;2023-11-19T08:34:54;117940.31;;;-139.74;0.00
76496;BME280;65329;52.544;4.662;2023-11-19T08:37:21;117940.31;;;-139.74;0.00
76496;BME280;65329;52.544;4.662;2023-11-19T08:39:50;117940.31;;;-139.74;0.00
76496;BME280;65329;52.544;4.662;2023-11-19T08:42:17;117940.31;;;-139.74;0.00
76496;BME280;65329;52.544;4.662;2023-11-19T08:44:49;117940.31;;;-139.74;0.00
76496;BME280;65329;52.544;4.662;2023-11-19T08:47:16;117940.31;;;-139.74;0.00
76496;BME280;65329;52.544;4.662;2023-11-19T08:49:46;117940.31;;;-139.74;0.00
76496;BME280;65329;52.544;4.662;2023-11-19T08:52:32;117940.31;;;-139.74;0.00
76496;BME280;65329;52.544;4.662;2023-11-19T08:55:01;117940.31;;;-139.74;0.00
76496;BME280;65329;52.544;4.662;2023-11-19T08:57:28;117940.31;;;-139.74;0.00
76496;BME280;65329;52.544;4.662;2023-11-19T08:59:54;117940.31;;;-139.74;0.00
76496;BME280;65329;52.544;4.662;2023-11-19T09:02:21;117940.31;;;-139.74;0.00
76496;BME280;65329;52.544;4.662;2023-11-19T09:04:48;117940.31;;;-139.74;0.00
76496;BME280;65329;52.544;4.662;2023-11-19T09:07:17;117940.31;;;-139.74;0.00
76496;BME280;65329;52.544;4.662;2023-11-19T09:09:44;117940.31;;;-139.74;0.00
76496;BME280;65329;52.544;4.662;2023-11-19T09:12:11;117940.31;;;-139.74;0.00
76496;BME280;65329;52.544;4.662;2023-11-19T09:14:37;117940.31;;;-139.74;0.00
76496;BME280;65329;52.544;4.662;2023-11-19T09:17:04;117940.31;;;-139.74;0.00
76496;BME280;65329;52.544;4.662;2023-11-19T09:19:32;117940.31;;;-139.74;0.00
76496;BME280;65329;52.544;4.662;2023-11-19T09:21:59;117940.31;;;-139.74;0.00
76496;BME280;65329;52.544;4.662;2023-11-19T09:24:26;117940.31;;;-139.74;0.00
76496;BME280;65329;52.544;4.662;2023-11-19T09:26:52;117940.31;;;-139.74;0.00
76496;BME280;65329;52.544;4.662;2023-11-19T09:29:21;117940.31;;;-139.74;0.00
76496;BME280;65329;52.544;4.662;2023-11-19T09:31:48;117940.31;;;-139.74;0.00
76496;BME280;65329;52.544;4.662;2023-11-19T09:34:15;117940.31;;;-139.74;0.00
76496;BME280;65329;52.544;4.662;2023-11-19T09:36:41;117940.31;;;-139.74;0.00
76496;BME280;65329;52.544;4.662;2023-11-19T09:39:11;117940.31;;;-139.74;0.00
76496;BME280;65329;52.544;4.662;2023-11-19T09:41:39;117940.31;;;-139.74;0.00
76496;BME280;65329;52.544;4.662;2023-11-19T09:44:09;117940.31;;;-139.74;0.00
76496;BME280;65329;52.544;4.662;2023-11-19T09:46:36;117940.31;;;-139.74;0.00
76496;BME280;65329;52.544;4.662;2023-11-19T09:49:04;117940.31;;;-139.74;0.00
76496;BME280;65329;52.544;4.662;2023-11-19T09:51:34;117940.31;;;-139.74;0.00
76496;BME280;65329;52.544;4.662;2023-11-19T09:54:00;117940.31;;;-139.74;0.00
76496;BME280;65329;52.544;4.662;2023-11-19T09:56:29;117940.31;;;-139.74;0.00
76496;BME280;65329;52.544;4.662;2023-11-19T09:58:56;117940.31;;;-139.74;0.00
76496;BME280;65329;52.544;4.662;2023-11-19T10:01:23;117940.31;;;-139.74;0.00
76496;BME280;65329;52.544;4.662;2023-11-19T10:03:55;117940.31;;;-139.74;0.00
76496;BME280;65329;52.544;4.662;2023-11-19T10:06:24;117940.31;;;-139.74;0.00
76496;BME280;65329;52.544;4.662;2023-11-19T10:08:53;117940.31;;;-139.74;0.00
76496;BME280;65329;52.544;4.662;2023-11-19T10:11:20;117940.31;;;-139.74;0.00
76496;BME280;65329;52.544;4.662;2023-11-19T10:13:47;117940.31;;;-139.74;0.00
76496;BME280;65329;52.544;4.662;2023-11-19T10:16:15;117940.31;;;-139.74;0.00
76496;BME280;65329;52.544;4.662;2023-11-19T10:18:45;117940.31;;;-139.74;0.00
76496;BME280;65329;52.544;4.662;2023-11-19T10:21:13;117940.31;;;-139.74;0.00
76496;BME280;65329;52.544;4.662;2023-11-19T10:23:52;117940.31;;;-139.74;0.00
76496;BME280;65329;52.544;4.662;2023-11-19T10:26:20;117940.31;;;-139.74;0.00
76496;BME280;65329;52.544;4.662;2023-11-19T10:28:48;117940.31;;;-139.74;0.00
76496;BME280;65329;52.544;4.662;2023-11-19T10:31:16;117940.31;;;-139.74;0.00
76496;BME280;65329;52.544;4.662;2023-11-19T10:33:43;117940.31;;;-139.74;0.00
76496;BME280;65329;52.544;4.662;2023-11-19T10:36:12;117940.31;;;-139.74;0.00
76496;BME280;65329;52.544;4.662;2023-11-19T10:38:40;117940.31;;;-139.74;0.00
76496;BME280;65329;52.544;4.662;2023-11-19T10:41:07;117940.31;;;-139.74;0.00
76496;BME280;65329;52.544;4.662;2023-11-19T10:43:43;117940.31;;;-139.74;0.00
76496;BME280;65329;52.544;4.662;2023-11-19T10:46:14;117940.31;;;-139.74;0.00
76496;BME280;65329;52.544;4.662;2023-11-19T10:48:41;117940.31;;;-139.74;0.00
76496;BME280;65329;52.544;4.662;2023-11-19T10:51:08;117940.31;;;-139.74;0.00
76496;BME280;65329;52.544;4.662;2023-11-19T10:53:36;117940.31;;;-139.74;0.00
76496;BME280;65329;52.544;4.662;2023-11-19T10:56:10;117940.31;;;-139.74;0.00
76496;BME280;65329;52.544;4.662;2023-11-19T10:58:44;117940.31;;;-139.74;0.00
76496;BME280;65329;52.544;4.662;2023-11-19T11:01:22;117940.31;;;-139.74;0.00
76496;BME280;65329;52.544;4.662;2023-11-19T11:03:51;117940.31;;;-139.74;0.00
76496;BME280;65329;52.544;4.662;2023-11-19T11:06:21;117940.31;;;-139.74;0.00
76496;BME280;65329;52.544;4.662;2023-11-19T11:08:49;117940.31;;;-139.74;0.00
76496;BME280;65329;52.544;4.662;2023-11-19T11:11:18;117940.31;;;-139.74;0.00
76496;BME280;65329;52.544;4.662;2023-11-19T11:13:49;117940.31;;;-139.74;0.00
76496;BME280;65329;52.544;4.662;2023-11-19T11:16:19;117940.31;;;-139.74;0.00
76496;BME280;65329;52.544;4.662;2023-11-19T11:18:49;117940.31;;;-139.74;0.00
76496;BME280;65329;52.544;4.662;2023-11-19T11:21:21;117940.31;;;-139.74;0.00
76496;BME280;65329;52.544;4.662;2023-11-19T11:29:35;117940.31;;;-139.74;0.00
76496;BME280;65329;52.544;4.662;2023-11-19T11:37:30;117940.31;;;-139.74;0.00
76496;BME280;65329;52.544;4.662;2023-11-19T11:39:58;117940.31;;;-139.74;0.00
76496;BME280;65329;52.544;4.662;2023-11-19T11:45:08;117940.31;;;-139.74;0.00
76496;BME280;65329;52.544;4.662;2023-11-19T11:50:15;117940.31;;;-139.74;0.00
76496;BME280;65329;52.544;4.662;2023-11-19T11:57:58;117940.31;;;-139.74;0.00
76496;BME280;65329;52.544;4.662;2023-11-19T12:00:38;117940.31;;;-139.74;0.00
76496;BME280;65329;52.544;4.662;2023-11-19T12:03:07;117940.31;;;-139.74;0.00
76496;BME280;65329;52.544;4.662;2023-11-19T12:05:42;117940.31;;;-139.74;0.00
76496;BME280;65329;52.544;4.662;2023-11-19T12:08:14;117940.31;;;-139.74;0.00
76496;BME280;65329;52.544;4.662;2023-11-19T12:10:49;117940.31;;;-139.74;0.00
76496;BME280;65329;52.544;4.662;2023-11-19T12:13:18;117940.31;;;-139.74;0.00
76496;BME280;65329;52.544;4.662;2023-11-19T12:18:29;117940.31;;;-139.74;0.00
76496;BME280;65329;52.544;4.662;2023-11-19T12:20:56;117940.31;;;-139.74;0.00
76496;BME280;65329;52.544;4.662;2023-11-19T12:23:23;117940.31;;;-139.74;0.00
76496;BME280;65329;52.544;4.662;2023-11-19T12:25:50;117940.31;;;-139.74;0.00
76496;BME280;65329;52.544;4.662;2023-11-19T12:28:17;117940.31;;;-139.74;0.00
76496;BME280;65329;52.544;4.662;2023-11-19T12:30:45;117940.31;;;-139.74;0.00
76496;BME280;65329;52.544;4.662;2023-11-19T12:33:13;117940.31;;;-139.74;0.00
76496;BME280;65329;52.544;4.662;2023-11-19T12:35:43;117940.31;;;-139.74;0.00
76496;BME280;65329;52.544;4.662;2023-11-19T12:38:23;117940.31;;;-139.74;0.00
76496;BME280;65329;52.544;4.662;2023-11-19T12:41:07;117940.31;;;-139.74;0.00
76496;BME280;65329;52.544;4.662;2023-11-19T12:43:37;117940.31;;;-139.74;0.00
76496;BME280;65329;52.544;4.662;2023-11-19T12:46:23;117940.31;;;-139.74;0.00
76496;BME280;65329;52.544;4.662;2023-11-19T12:48:51;117940.31;;;-139.74;0.00
76496;BME280;65329;52.544;4.662;2023-11-19T12:51:18;117940.31;;;-139.74;0.00
76496;BME280;65329;52.544;4.662;2023-11-19T12:53:48;117940.31;;;-139.74;0.00
76496;BME280;65329;52.544;4.662;2023-11-19T12:56:16;117940.31;;;-139.74;0.00
76496;BME280;65329;52.544;4.662;2023-11-19T12:58:43;117940.31;;;-139.74;0.00
76496;BME280;65329;52.544;4.662;2023-11-19T13:01:18;117940.31;;;-139.74;0.00
76496;BME280;65329;52.544;4.662;2023-11-19T13:03:47;117940.31;;;-139.74;0.00
76496;BME280;65329;52.544;4.662;2023-11-19T13:06:15;117940.31;;;-139.74;0.00
76496;BME280;65329;52.544;4.662;2023-11-19T13:08:44;117940.31;;;-139.74;0.00
76496;BME280;65329;52.544;4.662;2023-11-19T13:11:12;117940.31;;;-139.74;0.00